WetterOnline ( https://www.wetteronline.ch )

Wetter aktuell Usedom

Aktuelles Wetter: Ueckermünde (7m)

6-stündlich | Neueste Meldungen
Ortszeit Temperatur Wetter
Di, 23.04. 14:00 18.6° C wolkenlos
Di, 23.04. 8:00 12.0° C wolkenlos
Di, 23.04. 2:00 11.9° C wolkenlos
Mo, 22.04. 20:00 16.1° C wolkenlos
Mo, 22.04. 14:00 15.7° C wolkenlos
Mo, 22.04. 8:00 8.5° C wolkenlos
Mo, 22.04. 2:00 3.6° C wolkig
So, 21.04. 20:00 12.8° C wolkenlos
Ortszeit Temperatur Wetter
Di, 23.04. 16:10 18.7° C leicht bewölkt
Di, 23.04. 16:00 19.2° C leicht bewölkt
Di, 23.04. 15:50 19.2° C leicht bewölkt
Di, 23.04. 15:40 19.6° C leicht bewölkt
Di, 23.04. 15:30 19.4° C fast wolkenlos
Di, 23.04. 15:20 19.4° C fast wolkenlos
Di, 23.04. 15:00 19.5° C wolkenlos
Di, 23.04. 14:30 19.3° C wolkenlos
Di, 23.04. 14:00 18.6° C wolkenlos
Di, 23.04. 13:30 18.1° C wolkenlos
Di, 23.04. 13:00 17.5° C wolkenlos
Ortszeit Relative Feuchte Sichtweite
Di, 23.04. 14:00 31% 9 km
Di, 23.04. 8:00 47% 21 km
Di, 23.04. 2:00 60% 35 km
Mo, 22.04. 20:00 40% 65 km
Mo, 22.04. 14:00 52% 21 km
Mo, 22.04. 8:00 59% 26 km
Mo, 22.04. 2:00 91% 17 km
So, 21.04. 20:00 59% 55 km
Ortszeit Relative Feuchte Sichtweite
Di, 23.04. 16:10 34% -
Di, 23.04. 16:00 32% 13 km
Di, 23.04. 15:50 32% -
Di, 23.04. 15:40 32% -
Di, 23.04. 15:30 32% 14 km
Di, 23.04. 15:20 32% -
Di, 23.04. 15:00 30% 22 km
Di, 23.04. 14:30 29% 13 km
Di, 23.04. 14:00 31% 9 km
Di, 23.04. 13:30 32% 15 km
Di, 23.04. 13:00 37% 18 km
Ortszeit Niederschlagsmenge Niederschlagsart
Di, 23.04. 14:00 0.0 l/m2 in 6 Std. -
Di, 23.04. 8:00 0.0 l/m2 in 12 Std. -
Di, 23.04. 2:00 0.0 l/m2 in 6 Std. -
Mo, 22.04. 20:00 0.0 l/m2 in 12 Std. -
Mo, 22.04. 14:00 0.0 l/m2 in 6 Std. -
Mo, 22.04. 8:00 0.0 l/m2 in 12 Std. -
Mo, 22.04. 2:00 0.0 l/m2 in 6 Std. -
So, 21.04. 20:00 0.0 l/m2 in 12 Std. -
Ortszeit Niederschlagsmenge Niederschlagsart
Di, 23.04. 16:10 keine Meldung -
Di, 23.04. 16:00 0.0 l/m2 in 1 Std. -
Di, 23.04. 15:50 keine Meldung -
Di, 23.04. 15:40 keine Meldung -
Di, 23.04. 15:30 0.0 l/m2 in 1 Std. -
Di, 23.04. 15:20 keine Meldung -
Di, 23.04. 15:00 0.0 l/m2 in 1 Std. -
Di, 23.04. 14:30 0.0 l/m2 in 1 Std. -
Di, 23.04. 14:00 0.0 l/m2 in 1 Std. -
Di, 23.04. 13:30 0.0 l/m2 in 1 Std. -
Di, 23.04. 13:00 0.0 l/m2 in 1 Std. -
Ortszeit Stärke Spitze Richtung
km/h Bft. km/h Grad Sektor
Di, 23.04. 14:00 29 5 54 90° O
Di, 23.04. 8:00 22 4 35 100° O
Di, 23.04. 2:00 13 3 31 100° O
Mo, 22.04. 20:00 11 2 43 130° SO
Mo, 22.04. 14:00 17 3 33 40° NO
Mo, 22.04. 8:00 11 2 18 110° O
Mo, 22.04. 2:00 2 1 13 120° SO
So, 21.04. 20:00 9 2 24 50° NO
Ortszeit Stärke Spitze Richtung
km/h Bft. km/h Grad Sektor
Di, 23.04. 16:10 28 4 - 120° SO
Di, 23.04. 16:00 28 4 52 130° SO
Di, 23.04. 15:50 28 4 - 130° SO
Di, 23.04. 15:40 22 4 - 120° SO
Di, 23.04. 15:30 26 4 52 100° O
Di, 23.04. 15:20 26 4 - 100° O
Di, 23.04. 15:00 22 4 54 120° SO
Di, 23.04. 14:30 28 4 54 110° O
Di, 23.04. 14:00 29 5 54 90° O
Di, 23.04. 13:30 31 5 56 100° O
Di, 23.04. 13:00 26 4 48 90° O
Ortszeit Untergrenze Bedeckung Gattung
total tief tief mittel hoch
Di, 23.04. 14:00 - 0/8 0/8 - - -
Di, 23.04. 8:00 - 0/8 0/8 - - -
Di, 23.04. 2:00 - 0/8 0/8 - - -
Mo, 22.04. 20:00 - 0/8 0/8 - - -
Mo, 22.04. 14:00 - 0/8 0/8 - - -
Mo, 22.04. 8:00 - 0/8 0/8 - - -
Mo, 22.04. 2:00 10500 m 7/8 0/8 - - -
So, 21.04. 20:00 - 0/8 0/8 - - -
Ortszeit Bedeckungsgrad in Achtel und Wolkenuntergrenze
Di, 23.04. 16:10 3(2100m)
Di, 23.04. 16:00 3(2100m)
Di, 23.04. 15:50 3(2100m)
Di, 23.04. 15:40 3(2100m)
Di, 23.04. 15:30 1(2100m)
Di, 23.04. 15:20 1(2100m)
Di, 23.04. 15:00 1(2100m)
Di, 23.04. 14:30 keine Wolken
Di, 23.04. 14:00 keine Wolken
Di, 23.04. 13:30 keine Wolken
Di, 23.04. 13:00 keine Wolken
Ortszeit Luftdruck NN (hPa) Tendenz (hPa in 3 Std.)
Di, 23.04. 14:00 1013 - 2,6
Di, 23.04. 8:00 1017 - 1,0
Di, 23.04. 2:00 1018 - 0,8
Mo, 22.04. 20:00 1019 + 0,5
Mo, 22.04. 14:00 1020 - 1,2
Mo, 22.04. 8:00 1021 + 0,7
Mo, 22.04. 2:00 1021 - 0,6
So, 21.04. 20:00 1022 - 0,9
Ortszeit Luftdruck NN (hPa) Tendenz (hPa in 3 Std.)
Di, 23.04. 16:10 1011 keine Meldung
Di, 23.04. 16:00 1011 - 2,1
Di, 23.04. 15:50 1011 keine Meldung
Di, 23.04. 15:40 1012 keine Meldung
Di, 23.04. 15:30 1012 - 2,5
Di, 23.04. 15:20 1012 keine Meldung
Di, 23.04. 15:00 1012 - 2,5
Di, 23.04. 14:30 1012 - 2,5
Di, 23.04. 14:00 1013 - 2,6
Di, 23.04. 13:30 1013 - 2,4
Di, 23.04. 13:00 1014 - 2,4
Ortszeit Schneehöhe (cm)
Di, 23.04. 14:00 0
Di, 23.04. 8:00 0
Di, 23.04. 2:00 0
Mo, 22.04. 20:00 0
Mo, 22.04. 14:00 0
Mo, 22.04. 8:00 0
Mo, 22.04. 2:00 0
So, 21.04. 20:00 0
Ortszeit Schneehöhe (cm)
Di, 23.04. 16:10 0
Di, 23.04. 16:00 0
Di, 23.04. 15:50 0
Di, 23.04. 15:40 0
Di, 23.04. 15:30 0
Di, 23.04. 15:20 0
Di, 23.04. 15:00 0
Di, 23.04. 14:30 0
Di, 23.04. 14:00 0
Di, 23.04. 13:30 0
Di, 23.04. 13:00 0
Link zu dieser Seite / Seite empfehlen

Das Wetter in ...